Time;durP1;ratioP1;P1;durP2;ratioP2;P2;SDS_P1;SDS_P2;PMS_P1;PMS_P2;Temp;Humidity;BMP_temperature;BMP_pressure;BME280_temperature;BME280_humidity;BME280_pressure;Samples;Min_cycle;Max_cycle;Signal;HPM_P1;HPM_P2
2024/02/15 00:01:33;;;;;;;29.98;15.75;;;;;;;9.15;83.85;100953.34;5111528;28;20044;-50
2024/02/15 00:04:01;;;;;;;31.65;16.33;;;;;;;9.07;84.76;100952.81;5111684;28;20051;-48
2024/02/15 00:06:29;;;;;;;30.95;15.68;;;;;;;9.03;84.89;100951.22;5111877;28;20134;-49
2024/02/15 00:08:58;;;;;;;26.90;15.15;;;;;;;9.08;85.10;100944.78;5111675;28;20044;-50
2024/02/15 00:11:26;;;;;;;29.48;15.35;;;;;;;9.05;85.43;100944.91;5110317;28;20090;-49
2024/02/15 00:13:56;;;;;;;27.35;14.75;;;;;;;9.14;84.76;100944.50;5111688;28;20484;-53
2024/02/15 00:16:25;;;;;;;26.98;15.75;;;;;;;9.18;84.43;100946.13;5111445;28;20516;-49
2024/02/15 00:18:55;;;;;;;34.30;15.38;;;;;;;9.13;84.37;100945.44;5111575;28;20043;-53
2024/02/15 00:21:24;;;;;;;30.67;15.88;;;;;;;9.17;84.14;100954.16;5111500;28;20126;-49
2024/02/15 00:23:54;;;;;;;31.00;16.27;;;;;;;9.03;84.30;100949.41;5111426;28;20085;-50
2024/02/15 00:26:22;;;;;;;29.55;15.75;;;;;;;8.91;85.78;100949.09;5112258;28;20084;-48
2024/02/15 00:28:50;;;;;;;33.95;17.35;;;;;;;8.64;91.52;100956.41;5114359;28;20477;-49
2024/02/15 00:31:20;;;;;;;31.20;16.40;;;;;;;8.82;90.73;100955.66;5111275;28;20075;-49
2024/02/15 00:33:48;;;;;;;29.50;15.68;;;;;;;8.92;91.18;100950.81;5111574;28;20047;-54
2024/02/15 00:36:18;;;;;;;32.83;16.85;;;;;;;8.92;89.21;100946.34;5113177;28;20511;-53
2024/02/15 00:38:46;;;;;;;33.03;16.77;;;;;;;8.91;89.90;100949.94;5115391;27;20044;-49
2024/02/15 00:41:14;;;;;;;34.53;16.20;;;;;;;8.84;90.59;100957.31;5115668;27;20131;-50
2024/02/15 00:43:43;;;;;;;26.98;14.88;;;;;;;8.79;90.65;100950.47;5115234;28;20507;-48
2024/02/15 00:46:11;;;;;;;35.20;16.33;;;;;;;8.73;92.02;100956.03;5115308;28;20040;-49
2024/02/15 00:48:41;;;;;;;31.90;16.40;;;;;;;8.72;93.28;100954.31;5115300;28;20039;-53
2024/02/15 00:51:10;;;;;;;33.20;17.13;;;;;;;8.74;93.49;100957.75;5115131;28;20492;-53
2024/02/15 00:53:38;;;;;;;30.05;17.52;;;;;;;8.64;94.30;100965.25;5114973;28;20075;-52
2024/02/15 00:56:07;;;;;;;35.03;18.35;;;;;;;8.53;95.60;100970.16;5115106;28;20101;-49
2024/02/15 00:58:35;;;;;;;38.22;19.88;;;;;;;8.48;97.32;100967.66;5115096;28;20381;-48
2024/02/15 01:01:04;;;;;;;33.13;18.90;;;;;;;8.54;96.90;100956.78;5114903;28;20491;-51
2024/02/15 01:03:32;;;;;;;33.33;19.38;;;;;;;8.43;97.15;100959.03;5114571;28;20071;-49
2024/02/15 01:06:02;;;;;;;34.63;19.33;;;;;;;8.57;96.81;100958.44;5114736;28;20043;-49
2024/02/15 01:08:31;;;;;;;34.53;19.45;;;;;;;8.62;96.42;100959.16;5114868;28;20059;-50
2024/02/15 01:10:59;;;;;;;36.75;20.17;;;;;;;8.74;95.86;100973.72;5114737;28;20050;-51
2024/02/15 01:13:27;;;;;;;35.63;19.40;;;;;;;8.78;93.98;100970.88;5114780;28;20440;-55
2024/02/15 01:15:56;;;;;;;35.00;19.80;;;;;;;8.70;93.21;100972.13;5114590;27;20044;-52
2024/02/15 01:18:25;;;;;;;34.72;19.65;;;;;;;8.69;94.69;100970.41;5114395;28;20047;-51
2024/02/15 01:20:54;;;;;;;37.17;20.38;;;;;;;8.81;94.72;100959.25;5114523;28;20120;-54
2024/02/15 01:23:24;;;;;;;38.22;20.25;;;;;;;8.87;94.28;100949.19;5114806;28;20044;-56
2024/02/15 01:25:53;;;;;;;35.97;19.20;;;;;;;8.87;94.46;100951.84;5114560;28;20047;-51
2024/02/15 01:28:21;;;;;;;35.38;19.73;;;;;;;8.92;94.78;100951.69;5114295;28;20050;-49
2024/02/15 01:30:50;;;;;;;37.55;19.50;;;;;;;8.80;96.10;100962.84;5114017;28;20043;-49
2024/02/15 01:33:19;;;;;;;37.20;19.63;;;;;;;8.55;96.47;100962.97;5114556;28;20059;-50
2024/02/15 01:35:48;;;;;;;34.15;19.73;;;;;;;8.55;98.12;100958.50;5114458;28;20181;-50
2024/02/15 01:38:16;;;;;;;36.47;20.02;;;;;;;8.63;97.83;100960.00;5114437;28;20074;-53
2024/02/15 01:40:48;;;;;;;37.25;20.25;;;;;;;8.64;95.96;100953.75;5114055;28;20039;-53
2024/02/15 01:43:16;;;;;;;33.25;20.38;;;;;;;8.74;94.34;100955.09;5114099;28;20388;-50
2024/02/15 01:45:46;;;;;;;37.20;21.52;;;;;;;8.62;93.71;100959.16;5113933;28;20052;-49
2024/02/15 01:48:16;;;;;;;39.25;22.52;;;;;;;8.61;94.14;100960.06;5113760;28;20051;-49
2024/02/15 01:50:46;;;;;;;38.05;21.88;;;;;;;8.73;93.70;100950.72;5113889;28;20598;-50
2024/02/15 01:53:14;;;;;;;39.25;21.77;;;;;;;8.66;92.83;100955.41;5113967;28;20578;-51
2024/02/15 01:55:43;;;;;;;36.15;21.90;;;;;;;8.72;92.17;100959.63;5114053;28;20062;-49
2024/02/15 01:58:12;;;;;;;40.67;21.45;;;;;;;8.71;92.31;100955.25;5113808;28;20439;-47
2024/02/15 02:00:40;;;;;;;37.65;21.52;;;;;;;8.73;91.54;100948.91;5114238;28;20083;-52
2024/02/15 02:03:11;;;;;;;35.00;20.77;;;;;;;8.75;91.67;100946.19;5113639;28;20051;-50
2024/02/15 02:05:41;;;;;;;35.13;20.80;;;;;;;8.75;90.91;100946.19;5117646;28;20039;-51
2024/02/15 02:08:10;;;;;;;38.42;20.70;;;;;;;8.76;90.56;100946.13;5114129;28;20137;-49
2024/02/15 02:10:39;;;;;;;36.15;20.60;;;;;;;8.79;89.94;100937.19;5114075;28;20052;-48
2024/02/15 02:13:08;;;;;;;36.10;21.00;;;;;;;8.79;90.90;100926.53;5113698;28;20152;-52
2024/02/15 02:15:38;;;;;;;34.95;21.20;;;;;;;8.81;90.49;100927.31;5113289;28;20423;-52
2024/02/15 02:18:08;;;;;;;38.65;21.17;;;;;;;8.77;89.48;100925.72;5113644;28;20408;-55
2024/02/15 02:20:37;;;;;;;34.38;20.30;;;;;;;8.85;89.43;100924.47;5113372;28;20075;-50
2024/02/15 02:23:14;;;;;;;37.50;20.98;;;;;;;8.91;89.52;100933.13;5113288;28;20059;-50
2024/02/15 02:25:46;;;;;;;34.75;19.63;;;;;;;8.88;88.69;100926.16;5113358;28;20052;-53
2024/02/15 02:28:15;;;;;;;37.35;21.42;;;;;;;8.82;88.18;100929.91;5113444;28;20044;-49
2024/02/15 02:30:45;;;;;;;36.85;21.65;;;;;;;8.78;87.90;100924.78;5113232;28;20048;-47
2024/02/15 02:33:18;;;;;;;35.88;21.13;;;;;;;8.66;89.73;100918.19;5113216;28;20079;-50
2024/02/15 02:35:48;;;;;;;38.08;22.27;;;;;;;8.63;90.37;100928.09;5113112;28;20039;-53
2024/02/15 02:38:17;;;;;;;39.63;21.52;;;;;;;8.68;89.75;100936.72;5113321;28;20048;-50
2024/02/15 02:40:47;;;;;;;36.45;21.23;;;;;;;8.64;89.19;100938.66;5112907;28;20499;-51
2024/02/15 02:43:15;;;;;;;38.75;21.38;;;;;;;8.71;88.92;100937.50;5113065;28;20130;-54
2024/02/15 02:45:45;;;;;;;39.08;21.40;;;;;;;8.74;88.72;100928.50;5113093;28;20047;-50
2024/02/15 02:48:13;;;;;;;39.80;21.00;;;;;;;8.74;88.35;100937.34;5112812;28;20050;-49
2024/02/15 02:50:42;;;;;;;37.40;21.55;;;;;;;8.72;87.97;100933.91;5113071;28;20096;-52
2024/02/15 02:53:10;;;;;;;40.05;21.65;;;;;;;8.65;88.90;100920.91;5113301;28;20059;-50
2024/02/15 02:55:42;;;;;;;36.88;21.33;;;;;;;8.57;89.28;100930.06;5112869;28;20051;-50
2024/02/15 02:58:12;;;;;;;37.42;21.35;;;;;;;8.63;89.24;100928.09;5112515;28;20076;-50
2024/02/15 03:00:41;;;;;;;41.85;21.98;;;;;;;8.66;89.48;100927.94;5112567;28;20043;-51
2024/02/15 03:03:09;;;;;;;40.92;21.80;;;;;;;8.57;89.71;100938.03;5112341;28;20057;-49
2024/02/15 03:05:40;;;;;;;36.33;21.80;;;;;;;8.66;89.11;100938.59;5112442;28;20044;-50
2024/02/15 03:08:09;;;;;;;38.40;22.85;;;;;;;8.54;90.38;100937.31;5112393;28;20044;-49
2024/02/15 03:10:38;;;;;;;41.75;23.45;;;;;;;8.66;89.16;100935.94;5112726;28;20047;-50
2024/02/15 03:13:07;;;;;;;36.00;22.30;;;;;;;8.67;88.76;100940.31;5112417;28;20100;-50
2024/02/15 03:15:37;;;;;;;37.92;21.33;;;;;;;8.61;89.32;100938.81;5112114;28;20055;-54
2024/02/15 03:18:06;;;;;;;37.35;21.48;;;;;;;8.60;89.39;100937.06;5112408;28;20048;-51
2024/02/15 03:20:38;;;;;;;36.45;22.52;;;;;;;8.62;90.06;100932.53;5112381;28;20103;-49
2024/02/15 03:23:07;;;;;;;35.95;21.85;;;;;;;8.47;90.31;100936.69;5112123;27;20051;-49
2024/02/15 03:25:35;;;;;;;44.30;23.00;;;;;;;8.47;91.32;100936.69;5112991;28;20416;-50
2024/02/15 03:28:05;;;;;;;36.70;21.23;;;;;;;8.57;90.38;100939.84;5112432;28;20044;-50
2024/02/15 03:30:34;;;;;;;37.10;22.13;;;;;;;8.44;90.89;100936.81;5112294;28;20040;-49
2024/02/15 03:33:05;;;;;;;38.08;21.42;;;;;;;8.46;90.89;100937.63;5111964;28;20120;-49
2024/02/15 03:35:35;;;;;;;39.53;21.50;;;;;;;8.47;91.59;100939.34;5112135;28;20050;-49
2024/02/15 03:38:04;;;;;;;36.78;21.85;;;;;;;8.41;92.54;100939.59;5111878;28;20134;-47
2024/02/15 03:40:33;;;;;;;37.33;21.52;;;;;;;8.39;92.85;100940.56;5111787;28;20040;-49
2024/02/15 03:43:06;;;;;;;40.25;22.33;;;;;;;8.44;93.61;100938.63;5112051;28;20170;-48
2024/02/15 03:45:35;;;;;;;39.03;22.25;;;;;;;8.47;93.81;100942.00;5111733;28;20048;-48
2024/02/15 03:48:07;;;;;;;38.70;22.23;;;;;;;8.45;93.81;100941.22;5111815;28;20048;-49
2024/02/15 03:50:36;;;;;;;35.97;21.57;;;;;;;8.46;94.38;100942.94;5111792;27;20055;-49
2024/02/15 03:53:04;;;;;;;38.35;21.40;;;;;;;8.46;93.66;100934.97;5111471;28;20079;-48
2024/02/15 03:55:36;;;;;;;38.10;21.90;;;;;;;8.46;93.33;100945.59;5111507;28;20055;-49
2024/02/15 03:58:04;;;;;;;38.13;22.02;;;;;;;8.07;98.09;100941.81;5111571;28;20050;-47
2024/02/15 04:00:33;;;;;;;35.90;20.90;;;;;;;8.10;100.00;100947.00;5111666;28;20134;-47
2024/02/15 04:03:02;;;;;;;37.95;20.52;;;;;;;8.13;99.11;100945.13;5111420;28;20157;-48
2024/02/15 04:05:32;;;;;;;35.33;20.63;;;;;;;8.15;98.20;100948.56;5111408;28;20132;-49
2024/02/15 04:08:02;;;;;;;35.38;20.40;;;;;;;8.19;98.89;100941.34;5111680;28;20051;-49
2024/02/15 04:10:31;;;;;;;30.52;19.73;;;;;;;8.28;97.39;100939.19;5115411;28;20047;-49
2024/02/15 04:12:59;;;;;;;35.78;20.33;;;;;;;8.24;96.80;100936.72;5118419;27;20075;-48
2024/02/15 04:15:27;;;;;;;38.58;21.17;;;;;;;8.25;97.52;100941.97;5118414;27;20054;-50
2024/02/15 04:17:56;;;;;;;34.50;20.02;;;;;;;8.26;97.32;100937.53;5118218;27;20047;-50
2024/02/15 04:20:25;;;;;;;34.00;19.88;;;;;;;8.21;98.31;100937.72;5118073;27;20039;-50
2024/02/15 04:22:56;;;;;;;36.55;19.33;;;;;;;8.31;96.61;100938.22;5118293;28;20050;-50
2024/02/15 04:25:27;;;;;;;34.63;19.92;;;;;;;8.31;96.94;100928.44;5118270;27;20147;-49
2024/02/15 04:28:03;;;;;;;34.92;20.38;;;;;;;8.41;95.82;100931.63;5118177;27;20135;-50
2024/02/15 04:30:32;;;;;;;34.78;19.00;;;;;;;8.40;96.50;100931.69;5118050;27;20050;-49
2024/02/15 04:33:00;;;;;;;31.17;18.65;;;;;;;8.43;95.69;100926.25;5118002;27;20586;-52
2024/02/15 04:35:30;;;;;;;32.00;18.58;;;;;;;8.45;95.10;100930.56;5118283;27;20066;-49
2024/02/15 04:38:00;;;;;;;34.45;19.23;;;;;;;8.46;95.61;100926.97;5118099;27;20364;-47
2024/02/15 04:40:29;;;;;;;36.72;19.83;;;;;;;8.48;94.94;100922.47;5118169;27;20040;-51
2024/02/15 04:42:58;;;;;;;32.83;19.63;;;;;;;8.51;94.86;100927.66;5118026;27;20044;-53
2024/02/15 04:45:27;;;;;;;34.00;19.75;;;;;;;8.50;95.06;100928.59;5117898;27;20044;-49
2024/02/15 04:47:57;;;;;;;33.78;19.23;;;;;;;8.55;94.69;100937.25;5118138;27;20052;-51
2024/02/15 04:50:25;;;;;;;34.85;20.20;;;;;;;8.53;94.79;100939.09;5118075;27;20079;-48
2024/02/15 04:52:54;;;;;;;33.90;19.25;;;;;;;8.43;95.28;100943.06;5117795;27;20048;-48
2024/02/15 04:55:26;;;;;;;39.28;21.73;;;;;;;8.44;95.92;100935.94;5117841;27;20412;-48
2024/02/15 04:57:55;;;;;;;35.20;21.63;;;;;;;8.18;98.58;100934.28;5117846;27;20051;-50
2024/02/15 05:00:25;;;;;;;35.60;20.40;;;;;;;8.12;100.00;100939.88;5117938;27;20330;-50
2024/02/15 05:02:54;;;;;;;36.30;20.20;;;;;;;8.28;99.63;100938.31;5117765;27;20083;-50
2024/02/15 05:05:24;;;;;;;34.00;20.40;;;;;;;8.43;98.07;100947.53;5117738;27;20051;-50
2024/02/15 05:07:53;;;;;;;36.05;21.00;;;;;;;8.40;96.94;100948.53;5118137;27;20385;-50
2024/02/15 05:10:21;;;;;;;35.92;21.38;;;;;;;8.37;97.03;100940.63;5117606;27;20473;-50
2024/02/15 05:12:53;;;;;;;35.85;20.15;;;;;;;8.35;97.02;100950.47;5118210;27;20050;-52
2024/02/15 05:15:24;;;;;;;33.80;20.67;;;;;;;8.21;98.69;100952.78;5118177;27;20135;-51
2024/02/15 05:17:54;;;;;;;35.22;20.42;;;;;;;8.33;99.45;100958.47;5121015;27;20127;-50
2024/02/15 05:20:26;;;;;;;37.05;19.73;;;;;;;8.38;99.16;100957.47;5117440;27;20048;-50
2024/02/15 05:22:55;;;;;;;35.97;19.93;;;;;;;8.42;98.41;100957.28;5113454;27;20048;-55
2024/02/15 05:25:26;;;;;;;31.83;19.33;;;;;;;8.19;100.00;100967.91;5114034;28;20044;-50
2024/02/15 05:27:56;;;;;;;39.55;20.15;;;;;;;8.17;100.00;100967.13;5114185;28;20438;-51
2024/02/15 05:30:26;;;;;;;36.78;21.05;;;;;;;8.15;100.00;100967.19;5114001;28;20120;-49
2024/02/15 05:32:54;;;;;;;35.25;20.15;;;;;;;8.21;100.00;100971.41;5113916;28;20393;-49
2024/02/15 05:35:24;;;;;;;38.40;19.48;;;;;;;8.21;100.00;100969.59;5113823;28;20147;-49
2024/02/15 05:37:53;;;;;;;35.30;20.08;;;;;;;8.21;100.00;100968.75;5113823;28;20607;-50
2024/02/15 05:40:22;;;;;;;33.65;19.42;;;;;;;8.10;100.00;100960.28;5114809;28;20044;-50
2024/02/15 05:42:58;;;;;;;37.38;20.00;;;;;;;8.21;100.00;100968.75;5114296;28;20134;-51
2024/02/15 05:45:33;;;;;;;32.33;19.02;;;;;;;8.22;100.00;100965.16;5114104;28;20075;-52
2024/02/15 05:48:06;;;;;;;35.53;19.40;;;;;;;8.32;100.00;100970.03;5112553;28;20074;-53
2024/02/15 05:50:35;;;;;;;33.58;19.70;;;;;;;8.08;100.00;100967.47;5114236;28;20066;-52
2024/02/15 05:53:04;;;;;;;33.80;19.38;;;;;;;8.02;100.00;100969.44;5113962;28;20047;-50
2024/02/15 05:55:34;;;;;;;33.97;19.98;;;;;;;8.14;100.00;100977.88;5114102;28;20403;-51
2024/02/15 05:58:04;;;;;;;32.58;18.98;;;;;;;8.14;100.00;100986.72;5113921;28;20078;-50
2024/02/15 06:00:34;;;;;;;32.05;19.02;;;;;;;8.03;100.00;100980.94;5113805;28;20054;-47
2024/02/15 06:03:03;;;;;;;32.10;20.35;;;;;;;8.01;100.00;100985.47;5113410;28;20048;-50
2024/02/15 06:05:32;;;;;;;39.67;20.88;;;;;;;8.11;100.00;100983.31;5113475;28;20469;-49
2024/02/15 06:08:00;;;;;;;33.05;19.88;;;;;;;8.07;100.00;100992.31;5113600;28;20108;-49
2024/02/15 06:10:29;;;;;;;32.28;19.92;;;;;;;7.72;100.00;100991.81;5112884;28;20447;-49
2024/02/15 06:12:58;;;;;;;35.05;20.73;;;;;;;7.89;100.00;100991.22;5113354;28;20054;-49
2024/02/15 06:15:28;;;;;;;36.45;20.80;;;;;;;7.93;100.00;100995.50;5113249;28;20043;-47
2024/02/15 06:17:57;;;;;;;34.03;19.77;;;;;;;7.92;100.00;100989.31;5113418;28;20043;-50
2024/02/15 06:20:29;;;;;;;34.92;21.20;;;;;;;7.86;100.00;101000.16;5113361;28;20047;-51
2024/02/15 06:22:57;;;;;;;39.53;20.95;;;;;;;7.92;100.00;100997.28;5113225;28;20134;-51
2024/02/15 06:25:26;;;;;;;35.47;20.55;;;;;;;7.99;100.00;100993.44;5113179;28;20081;-52
2024/02/15 06:27:59;;;;;;;35.88;20.60;;;;;;;8.15;100.00;101007.03;5113042;28;20096;-50
2024/02/15 06:41:40;;;;;;;37.90;21.33;;;;;;;8.31;100.00;101012.66;5112646;28;20096;-52
2024/02/15 06:44:09;;;;;;;34.08;20.88;;;;;;;8.13;100.00;101013.34;5112937;28;20113;-48
2024/02/15 06:46:41;;;;;;;33.38;20.35;;;;;;;8.26;100.00;101020.78;5113159;28;20047;-51
2024/02/15 06:49:09;;;;;;;39.85;21.30;;;;;;;8.41;100.00;101022.03;5112598;28;20500;-52
2024/02/15 06:51:38;;;;;;;35.08;20.90;;;;;;;8.15;100.00;101020.31;5112709;28;20047;-52
2024/02/15 06:54:06;;;;;;;39.17;21.63;;;;;;;8.13;100.00;101023.97;5113010;27;20132;-51
2024/02/15 06:56:39;;;;;;;37.88;21.05;;;;;;;8.15;100.00;101027.44;5112693;28;20047;-51
2024/02/15 06:59:10;;;;;;;36.53;20.45;;;;;;;8.00;100.00;101031.50;5112471;28;20089;-52
2024/02/15 07:01:39;;;;;;;44.03;21.52;;;;;;;8.18;100.00;101027.31;5112586;28;20086;-51
2024/02/15 07:04:10;;;;;;;36.67;20.92;;;;;;;8.35;100.00;101024.03;5112133;28;20459;-51
2024/02/15 07:06:39;;;;;;;33.50;21.42;;;;;;;8.35;100.00;101030.22;5112311;28;20047;-51
2024/02/15 07:09:07;;;;;;;35.25;20.73;;;;;;;8.50;100.00;101034.97;5112182;28;20389;-51
2024/02/15 07:11:36;;;;;;;35.95;20.50;;;;;;;8.35;99.76;101029.34;5113308;28;20048;-50
2024/02/15 07:14:07;;;;;;;34.58;21.55;;;;;;;8.10;100.00;101029.38;5112228;28;20044;-49
2024/02/15 07:16:35;;;;;;;35.13;20.65;;;;;;;8.21;100.00;101038.72;5111611;28;20079;-52
2024/02/15 07:19:05;;;;;;;38.33;21.50;;;;;;;8.06;100.00;101027.78;5112165;28;20058;-50
2024/02/15 07:21:38;;;;;;;38.30;20.45;;;;;;;7.94;100.00;101024.66;5112114;28;20039;-53
2024/02/15 07:24:09;;;;;;;37.95;21.65;;;;;;;8.12;100.00;101032.88;5112041;28;20132;-54
2024/02/15 07:26:38;;;;;;;36.55;22.05;;;;;;;8.29;100.00;101035.72;5112268;28;20047;-50
2024/02/15 07:29:07;;;;;;;41.10;22.30;;;;;;;8.27;100.00;101030.47;5112511;28;20039;-51
2024/02/15 07:31:36;;;;;;;39.45;22.27;;;;;;;8.11;100.00;101047.09;5112131;28;20044;-53
2024/02/15 07:34:08;;;;;;;40.00;21.92;;;;;;;8.29;100.00;101046.38;5112063;28;20043;-52
2024/02/15 07:36:42;;;;;;;39.53;22.17;;;;;;;8.36;100.00;101055.00;5111929;28;20134;-52
2024/02/15 07:39:12;;;;;;;39.30;22.02;;;;;;;8.44;100.00;101044.97;5112157;28;20054;-52
2024/02/15 07:41:42;;;;;;;35.57;21.17;;;;;;;8.34;100.00;101047.06;5112039;28;20039;-52
2024/02/15 07:44:11;;;;;;;32.47;19.63;;;;;;;8.37;100.00;101044.31;5111587;28;20510;-52
2024/02/15 07:46:42;;;;;;;39.20;22.00;;;;;;;8.52;99.18;101042.88;5111601;28;20055;-55
2024/02/15 07:49:14;;;;;;;41.30;22.25;;;;;;;8.37;100.00;101044.31;5115399;28;20059;-53
2024/02/15 07:51:45;;;;;;;35.83;21.67;;;;;;;8.30;100.00;101042.81;5101961;28;20051;-50
2024/02/15 07:54:15;;;;;;;38.17;21.05;;;;;;;8.02;100.00;101037.66;5091350;28;20300;-50
2024/02/15 07:56:43;;;;;;;42.03;23.15;;;;;;;7.92;100.00;101041.59;5091421;28;20223;-52
2024/02/15 07:59:11;;;;;;;44.92;23.33;;;;;;;7.74;100.00;101043.13;5091243;28;20184;-50
2024/02/15 08:01:45;;;;;;;38.47;22.80;;;;;;;7.78;100.00;101044.72;5091948;28;20052;-51
2024/02/15 08:04:15;;;;;;;42.60;22.20;;;;;;;7.59;100.00;101031.22;5091098;28;20125;-51
2024/02/15 08:06:48;;;;;;;43.03;22.08;;;;;;;7.82;100.00;101037.53;5091355;28;20055;-51
2024/02/15 08:09:23;;;;;;;39.00;21.70;;;;;;;7.84;100.00;101043.66;5090997;28;20044;-51
2024/02/15 08:11:58;;;;;;;40.42;22.02;;;;;;;7.80;100.00;101032.25;5090971;28;20040;-48
2024/02/15 08:14:28;;;;;;;44.53;23.23;;;;;;;7.78;100.00;101038.53;5109418;28;20122;-50
2024/02/15 08:17:03;;;;;;;37.38;21.95;;;;;;;7.68;100.00;101040.66;5111569;28;20051;-51
2024/02/15 08:19:36;;;;;;;38.15;22.17;;;;;;;7.81;100.00;101039.28;5111645;28;20058;-50
2024/02/15 08:22:07;;;;;;;41.83;21.80;;;;;;;7.99;100.00;101037.75;5111412;28;20071;-52
2024/02/15 08:24:36;;;;;;;35.00;20.38;;;;;;;7.87;100.00;101039.06;5111968;28;20553;-50
2024/02/15 08:27:10;;;;;;;36.25;22.15;;;;;;;8.07;100.00;101040.13;5111198;28;20044;-53
2024/02/15 08:29:39;;;;;;;40.03;23.17;;;;;;;8.21;100.00;101038.72;5111190;28;20132;-49
2024/02/15 08:32:07;;;;;;;40.67;22.92;;;;;;;8.08;100.00;101037.41;5111207;28;20051;-50
2024/02/15 08:34:40;;;;;;;40.35;22.63;;;;;;;8.09;100.00;101033.84;5110920;28;20511;-48
2024/02/15 08:37:09;;;;;;;;;;;;;;;8.13;100.00;101045.22;5110200;28;20447;-50
2024/02/15 08:39:38;;;;;;;36.50;21.42;;;;;;;8.21;100.00;101051.13;5109890;28;20304;-50
2024/02/15 08:42:06;;;;;;;38.95;21.75;;;;;;;8.22;100.00;101042.22;5110701;28;20044;-49
2024/02/15 08:44:34;;;;;;;35.47;21.17;;;;;;;8.08;100.00;101041.88;5110976;28;20485;-49
2024/02/15 08:47:05;;;;;;;36.55;20.52;;;;;;;8.15;100.00;101041.59;5110687;28;20048;-51
2024/02/15 08:49:33;;;;;;;37.35;20.90;;;;;;;8.10;100.00;101032.03;5111008;28;20043;-53
2024/02/15 08:52:07;;;;;;;36.83;21.33;;;;;;;8.07;100.00;101029.50;5110567;28;20048;-51
2024/02/15 08:54:38;;;;;;;36.60;22.40;;;;;;;8.02;100.00;101035.88;5110605;28;20066;-50
2024/02/15 08:57:07;;;;;;;35.85;20.10;;;;;;;8.06;100.00;101038.41;5112390;28;20047;-52
2024/02/15 08:59:35;;;;;;;36.30;20.75;;;;;;;7.97;100.00;101048.44;5114483;28;20054;-49
2024/02/15 09:02:05;;;;;;;36.95;21.60;;;;;;;8.38;100.00;101056.69;5114175;28;20044;-50
2024/02/15 09:04:33;;;;;;;36.88;22.10;;;;;;;8.54;100.00;101057.84;5113655;28;20040;-50
2024/02/15 09:07:04;;;;;;;34.15;21.92;;;;;;;8.51;100.00;101051.78;5113838;28;20460;-51
2024/02/15 09:09:38;;;;;;;38.20;21.15;;;;;;;8.50;100.00;101050.91;5114223;28;20043;-50
2024/02/15 09:12:07;;;;;;;34.25;20.77;;;;;;;8.68;98.44;101048.44;5111584;28;20043;-51
2024/02/15 09:14:36;;;;;;;36.88;21.65;;;;;;;8.58;99.02;101054.13;5113522;28;20075;-49
2024/02/15 09:17:07;;;;;;;38.63;21.92;;;;;;;8.39;100.00;101053.09;5113916;28;20097;-50
2024/02/15 09:19:36;;;;;;;37.40;22.25;;;;;;;8.64;98.56;101057.47;5114076;28;20051;-50
2024/02/15 09:22:06;;;;;;;37.20;21.30;;;;;;;8.37;98.61;101054.94;5114192;28;20040;-48
2024/02/15 09:24:34;;;;;;;43.03;22.88;;;;;;;8.55;99.00;101051.59;5114311;28;20036;-53
2024/02/15 09:27:04;;;;;;;36.08;21.55;;;;;;;8.45;99.10;101052.00;5114258;28;20099;-51
2024/02/15 09:29:33;;;;;;;39.95;23.20;;;;;;;8.56;99.53;101055.97;5114294;28;20062;-52
2024/02/15 09:32:03;;;;;;;39.33;22.55;;;;;;;8.69;98.12;101055.50;5114111;28;20050;-48
2024/02/15 09:34:32;;;;;;;41.33;23.15;;;;;;;8.81;99.57;101055.88;5114376;28;20421;-50
2024/02/15 09:37:01;;;;;;;37.58;21.90;;;;;;;9.05;96.68;101059.31;5114069;28;20047;-51
2024/02/15 09:39:35;;;;;;;37.08;22.48;;;;;;;9.17;96.90;101053.53;5113767;28;20039;-50
2024/02/15 09:42:06;;;;;;;33.22;21.52;;;;;;;9.23;96.49;101063.03;5113757;27;20120;-49
2024/02/15 09:44:34;;;;;;;39.40;21.90;;;;;;;9.32;96.00;101056.47;5113917;28;20039;-50
2024/02/15 09:47:08;;;;;;;39.88;22.10;;;;;;;9.22;95.66;101052.44;5113576;28;20066;-52
2024/02/15 09:49:39;;;;;;;41.47;21.02;;;;;;;9.21;94.51;101050.72;5112182;28;20044;-53
2024/02/15 09:52:11;;;;;;;36.97;21.48;;;;;;;9.10;94.05;101057.34;5111202;28;20396;-53
2024/02/15 09:54:43;;;;;;;36.50;20.48;;;;;;;8.89;96.68;101055.59;5112854;28;20548;-53
2024/02/15 09:57:13;;;;;;;34.42;21.35;;;;;;;8.98;94.67;101055.22;5112778;28;20696;-53
2024/02/15 09:59:44;;;;;;;39.83;21.63;;;;;;;8.97;95.27;101058.78;5112558;28;20071;-51
2024/02/15 10:02:14;;;;;;;32.65;20.10;;;;;;;8.97;93.75;101058.78;5115486;28;20146;-49
2024/02/15 10:04:50;;;;;;;37.75;20.48;;;;;;;9.04;94.00;101065.59;5111626;28;20052;-51
2024/02/15 10:07:19;;;;;;;36.53;21.63;;;;;;;9.20;93.84;101049.84;5113585;28;20136;-51
2024/02/15 10:09:47;;;;;;;35.13;20.70;;;;;;;9.51;93.04;101054.75;5113443;28;20157;-50
2024/02/15 10:12:18;;;;;;;35.72;21.13;;;;;;;9.21;91.94;101046.25;5113235;28;20108;-51
2024/02/15 10:14:51;;;;;;;35.42;20.90;;;;;;;9.34;91.71;101049.25;5112843;28;20126;-52
2024/02/15 10:17:20;;;;;;;35.45;20.90;;;;;;;9.33;91.38;101052.84;5113138;28;20053;-52
2024/02/15 10:20:05;;;;;;;34.00;20.63;;;;;;;9.19;91.10;101048.13;5112649;28;20048;-49
2024/02/15 10:22:34;;;;;;;39.58;20.48;;;;;;;9.37;91.43;101038.50;5112581;28;20133;-51
2024/02/15 10:25:15;;;;;;;33.03;20.23;;;;;;;9.36;91.78;101044.72;5112462;28;20383;-50
2024/02/15 10:27:47;;;;;;;35.33;20.70;;;;;;;9.49;90.92;101035.31;5110422;28;20083;-51
2024/02/15 10:30:17;;;;;;;37.50;21.35;;;;;;;9.39;90.96;101047.28;5112486;28;20047;-53
2024/02/15 10:32:46;;;;;;;34.65;20.58;;;;;;;9.26;91.45;101041.59;5112164;28;20138;-52
2024/02/15 10:35:21;;;;;;;36.53;22.33;;;;;;;9.14;92.13;101045.63;5112277;28;20043;-49
2024/02/15 10:37:52;;;;;;;41.28;21.98;;;;;;;9.42;91.92;101042.69;5112331;28;20069;-50
2024/02/15 10:40:21;;;;;;;38.95;21.80;;;;;;;9.66;89.55;101040.78;5111821;28;20555;-51
2024/02/15 10:42:52;;;;;;;33.95;20.90;;;;;;;9.74;88.44;101033.28;5112036;28;20434;-50
2024/02/15 10:45:25;;;;;;;37.92;20.90;;;;;;;9.81;87.55;101041.00;5112852;28;20048;-50
2024/02/15 10:47:54;;;;;;;32.15;19.95;;;;;;;9.97;86.38;101031.41;5112515;28;20060;-52
2024/02/15 10:50:28;;;;;;;31.80;19.35;;;;;;;10.07;84.76;101038.03;5112571;28;20051;-51
2024/02/15 10:52:57;;;;;;;35.67;18.92;;;;;;;10.20;84.11;101035.66;5111342;28;20043;-50
2024/02/15 10:55:42;;;;;;;32.70;19.70;;;;;;;10.34;82.97;101037.75;5107973;28;20071;-52
2024/02/15 10:58:20;;;;;;;35.13;19.15;;;;;;;10.45;82.34;101040.78;5111038;28;20051;-50
2024/02/15 11:00:52;;;;;;;34.22;19.27;;;;;;;10.43;82.11;101037.31;5111626;28;20051;-51
2024/02/15 11:03:34;;;;;;;34.17;20.25;;;;;;;10.45;81.90;101028.31;5109120;28;20039;-48
2024/02/15 11:06:07;;;;;;;30.27;19.08;;;;;;;10.39;82.11;101031.25;5110150;28;20046;-51
2024/02/15 11:08:37;;;;;;;;;;;;;;;10.48;82.23;101029.94;5112021;28;20059;-51
2024/02/15 11:11:11;;;;;;;32.78;18.83;;;;;;;10.55;82.19;101029.59;5111806;28;19927;-51
2024/02/15 11:13:43;;;;;;;30.70;20.13;;;;;;;10.58;81.59;101032.09;5109154;28;20040;-54
2024/02/15 11:16:40;;;;;;;30.25;18.88;;;;;;;10.54;81.23;101025.19;5110722;28;20040;-53
2024/02/15 11:19:10;;;;;;;29.40;19.05;;;;;;;10.82;80.46;101014.06;5108181;28;20036;-50
2024/02/15 11:21:56;;;;;;;32.60;20.15;;;;;;;10.93;80.72;101023.34;5110187;28;20119;-50
2024/02/15 11:24:32;;;;;;;32.55;20.20;;;;;;;10.72;80.29;101017.25;5109530;28;20765;-52
2024/02/15 11:27:03;;;;;;;38.78;21.08;;;;;;;10.68;80.05;101021.84;5110467;28;20534;-49
2024/02/15 11:29:54;;;;;;;36.05;20.25;;;;;;;10.79;80.90;101021.31;5110544;28;20066;-49
2024/02/15 11:32:44;;;;;;;35.15;20.15;;;;;;;10.76;80.80;101019.69;5109095;28;20040;-49
2024/02/15 11:35:22;;;;;;;39.25;20.33;;;;;;;10.81;80.72;101020.34;5110626;28;20067;-52
2024/02/15 11:38:06;;;;;;;32.13;19.00;;;;;;;11.04;80.17;101013.84;5106607;28;20047;-49
2024/02/15 11:41:14;;;;;;;34.33;20.33;;;;;;;10.91;78.97;101018.09;5109583;28;20185;-50